createdAt,value
2018-06-28T00:02:01.187Z,13.50
2018-06-28T00:04:29.618Z,13.50
2018-06-28T00:06:57.979Z,13.50
2018-06-28T00:09:26.394Z,13.40
2018-06-28T00:11:54.777Z,13.40
2018-06-28T00:14:23.121Z,13.30
2018-06-28T00:16:51.683Z,13.30
2018-06-28T00:19:20.029Z,13.20
2018-06-28T00:21:50.814Z,13.10
2018-06-28T00:24:19.197Z,13.10
2018-06-28T00:26:47.603Z,12.90
2018-06-28T00:29:15.963Z,13.00
2018-06-28T00:31:44.311Z,12.90
2018-06-28T00:34:12.684Z,12.90
2018-06-28T00:36:41.045Z,12.80
2018-06-28T00:39:10.593Z,12.80
2018-06-28T00:41:39.238Z,12.80
2018-06-28T00:44:07.624Z,12.80
2018-06-28T00:46:36.043Z,12.70
2018-06-28T00:49:04.413Z,12.70
2018-06-28T00:51:32.743Z,12.70
2018-06-28T00:54:01.086Z,12.60
2018-06-28T00:56:29.450Z,12.60
2018-06-28T00:58:57.861Z,12.50
2018-06-28T01:01:26.279Z,12.50
2018-06-28T01:03:54.691Z,12.50
2018-06-28T01:06:23.135Z,12.40
2018-06-28T01:08:51.502Z,12.50
2018-06-28T01:11:19.831Z,12.50
2018-06-28T01:13:48.284Z,12.50
2018-06-28T01:16:16.761Z,12.50
2018-06-28T01:18:45.124Z,12.50
2018-06-28T01:21:13.469Z,12.40
2018-06-28T01:23:41.810Z,12.40
2018-06-28T01:26:10.174Z,12.50
2018-06-28T01:28:38.503Z,12.50
2018-06-28T01:31:06.806Z,12.50
2018-06-28T01:33:35.131Z,12.50
2018-06-28T01:36:03.460Z,12.50
2018-06-28T01:38:31.849Z,12.50
2018-06-28T01:41:00.149Z,12.50
2018-06-28T01:43:42.502Z,12.40
2018-06-28T01:46:10.874Z,12.30
2018-06-28T01:48:39.218Z,12.30
2018-06-28T01:51:07.665Z,12.30
2018-06-28T01:53:36.067Z,12.30
2018-06-28T01:56:04.479Z,12.40
2018-06-28T01:58:32.859Z,12.40
2018-06-28T02:01:01.531Z,12.40
2018-06-28T02:03:29.897Z,12.40
2018-06-28T02:05:58.261Z,12.40
2018-06-28T02:08:26.654Z,12.40
2018-06-28T02:10:55.001Z,12.30
2018-06-28T02:13:23.362Z,12.30
2018-06-28T02:15:51.729Z,12.20
2018-06-28T02:18:20.137Z,12.20
2018-06-28T02:20:48.524Z,12.10
2018-06-28T02:23:16.900Z,12.10
2018-06-28T02:25:45.257Z,12.10
2018-06-28T02:28:13.647Z,12.00
2018-06-28T02:30:42.019Z,12.00
2018-06-28T02:33:10.322Z,11.90
2018-06-28T02:35:38.672Z,11.90
2018-06-28T02:38:07.003Z,11.80
2018-06-28T02:40:35.414Z,11.70
2018-06-28T02:43:03.722Z,11.70
2018-06-28T02:45:32.061Z,11.80
2018-06-28T02:50:28.391Z,11.90
2018-06-28T02:52:56.767Z,11.90
2018-06-28T02:55:25.080Z,11.90
2018-06-28T02:57:53.434Z,11.90
2018-06-28T03:00:21.773Z,11.90
2018-06-28T03:02:50.104Z,11.90
2018-06-28T03:05:18.497Z,12.00
2018-06-28T03:07:46.815Z,11.90
2018-06-28T03:10:15.128Z,11.90
2018-06-28T03:12:43.467Z,11.90
2018-06-28T03:15:11.808Z,11.90
2018-06-28T03:17:40.146Z,11.90
2018-06-28T03:20:08.521Z,11.90
2018-06-28T03:22:36.839Z,11.90
2018-06-28T03:25:05.212Z,11.90
2018-06-28T03:27:33.553Z,11.90
2018-06-28T03:30:01.902Z,11.90
2018-06-28T03:32:30.230Z,11.90
2018-06-28T03:34:58.664Z,11.90
2018-06-28T03:37:27.039Z,11.90
2018-06-28T03:39:55.353Z,11.90
2018-06-28T03:42:23.653Z,11.90
2018-06-28T03:44:51.998Z,11.90
2018-06-28T03:47:20.314Z,11.90
2018-06-28T03:49:48.684Z,11.90
2018-06-28T03:52:16.977Z,11.80
2018-06-28T03:54:45.373Z,11.80
2018-06-28T03:57:13.742Z,11.70
2018-06-28T03:59:42.100Z,11.70
2018-06-28T04:02:10.464Z,11.70
2018-06-28T04:04:38.860Z,11.80
2018-06-28T04:07:07.215Z,11.80
2018-06-28T04:09:35.546Z,11.90
2018-06-28T04:12:03.952Z,12.00
2018-06-28T04:14:32.296Z,12.00
2018-06-28T04:17:00.619Z,12.00
2018-06-28T04:19:28.947Z,12.00
2018-06-28T04:21:57.317Z,11.90
2018-06-28T04:24:25.837Z,11.80
2018-06-28T04:26:54.186Z,11.80
2018-06-28T04:29:22.531Z,11.90
2018-06-28T04:31:50.910Z,11.80
2018-06-28T04:34:19.262Z,12.00
2018-06-28T04:36:47.644Z,12.10
2018-06-28T04:39:16.018Z,12.00
2018-06-28T04:41:44.410Z,12.10
2018-06-28T04:44:12.694Z,12.10
2018-06-28T04:46:41.043Z,12.20
2018-06-28T04:49:09.370Z,12.30
2018-06-28T04:51:37.670Z,12.50
2018-06-28T04:54:06.047Z,12.70
2018-06-28T04:56:34.397Z,12.90
2018-06-28T04:59:02.717Z,13.00
2018-06-28T05:01:31.126Z,13.20
2018-06-28T05:03:59.524Z,13.20
2018-06-28T05:06:27.914Z,13.30
2018-06-28T05:08:56.246Z,13.30
2018-06-28T05:11:24.581Z,13.20
2018-06-28T05:13:52.919Z,13.20
2018-06-28T05:16:21.231Z,13.20
2018-06-28T05:18:49.560Z,13.30
2018-06-28T05:21:17.882Z,13.40
2018-06-28T05:23:46.226Z,13.70
2018-06-28T05:26:14.663Z,13.90
2018-06-28T05:28:43.066Z,14.30
2018-06-28T05:31:11.411Z,14.50
2018-06-28T05:33:39.727Z,14.80
2018-06-28T05:36:08.020Z,15.00
2018-06-28T05:38:36.349Z,15.30
2018-06-28T05:41:04.687Z,15.50
2018-06-28T05:43:33.041Z,15.60
2018-06-28T05:46:01.335Z,15.80
2018-06-28T05:48:29.670Z,15.80
2018-06-28T05:50:58.069Z,16.00
2018-06-28T05:53:26.443Z,16.20
2018-06-28T05:55:54.790Z,16.30
2018-06-28T05:58:23.128Z,16.50
2018-06-28T06:00:51.559Z,16.70
2018-06-28T06:03:19.946Z,17.00
2018-06-28T06:05:48.310Z,17.30
2018-06-28T06:08:16.776Z,17.70
2018-06-28T06:10:45.115Z,18.00
2018-06-28T06:13:13.449Z,18.20
2018-06-28T06:15:41.913Z,18.30
2018-06-28T06:18:10.251Z,18.30
2018-06-28T06:20:38.697Z,18.50
2018-06-28T06:23:07.011Z,18.70
2018-06-28T06:25:35.357Z,19.10
2018-06-28T06:28:03.750Z,19.20
2018-06-28T06:30:32.098Z,19.30
2018-06-28T06:33:00.424Z,19.40
2018-06-28T06:35:28.790Z,19.70
2018-06-28T06:37:57.113Z,19.90
2018-06-28T06:40:25.598Z,19.70
2018-06-28T06:42:53.916Z,20.10
2018-06-28T06:45:22.245Z,20.30
2018-06-28T06:50:18.620Z,20.60
2018-06-28T06:52:46.978Z,20.70
2018-06-28T06:55:15.358Z,21.10
2018-06-28T07:00:11.917Z,21.60
2018-06-28T07:02:40.277Z,21.30
2018-06-28T07:05:08.653Z,21.40
2018-06-28T07:07:37.052Z,21.50
2018-06-28T07:10:05.484Z,21.50
2018-06-28T07:12:33.818Z,21.50
2018-06-28T07:15:02.173Z,22.10
2018-06-28T07:19:58.619Z,22.60
2018-06-28T07:22:26.998Z,22.60
2018-06-28T07:24:55.372Z,22.30
2018-06-28T07:29:51.818Z,22.60
2018-06-28T07:32:20.170Z,22.60
2018-06-28T07:34:48.571Z,22.50
2018-06-28T07:37:17.150Z,22.90
2018-06-28T07:39:45.526Z,23.10
2018-06-28T07:42:13.877Z,23.70
2018-06-28T07:44:42.246Z,23.70
2018-06-28T07:47:10.624Z,23.50
2018-06-28T07:49:39.058Z,23.50
2018-06-28T07:52:07.997Z,22.90
2018-06-28T07:54:36.380Z,22.80
2018-06-28T07:57:04.782Z,23.20
2018-06-28T07:59:33.185Z,23.50
2018-06-28T08:04:29.772Z,23.80
2018-06-28T08:06:58.054Z,23.20
2018-06-28T08:09:26.478Z,23.10
2018-06-28T08:11:54.817Z,23.20
2018-06-28T08:14:23.224Z,22.90
2018-06-28T08:16:51.588Z,23.40
2018-06-28T08:19:19.936Z,24.10
2018-06-28T08:21:48.335Z,24.50
2018-06-28T08:24:16.686Z,24.70
2018-06-28T08:26:45.060Z,24.20
2018-06-28T08:29:13.913Z,24.00
2018-06-28T08:31:42.299Z,23.90
2018-06-28T08:34:10.637Z,23.70
2018-06-28T08:36:39.094Z,23.50
2018-06-28T08:39:08.319Z,23.20
2018-06-28T08:41:36.855Z,23.20
2018-06-28T08:44:05.647Z,23.20
2018-06-28T08:46:34.498Z,23.30
2018-06-28T08:49:03.012Z,23.50
2018-06-28T08:51:31.316Z,23.60
2018-06-28T08:53:59.669Z,23.60
2018-06-28T08:56:28.141Z,23.20
2018-06-28T08:58:56.515Z,23.70
2018-06-28T09:01:25.564Z,24.20
2018-06-28T09:03:53.937Z,24.20
2018-06-28T09:06:22.327Z,24.00
2018-06-28T09:08:50.771Z,23.90
2018-06-28T09:11:19.825Z,24.00
2018-06-28T09:13:48.717Z,24.00
2018-06-28T09:16:17.103Z,24.20
2018-06-28T09:18:45.461Z,24.00
2018-06-28T09:21:13.847Z,24.30
2018-06-28T09:23:42.249Z,24.10
2018-06-28T09:26:10.629Z,24.20
2018-06-28T09:28:39.031Z,24.30
2018-06-28T09:31:07.452Z,24.60
2018-06-28T09:33:35.849Z,24.70
2018-06-28T09:36:04.306Z,24.40
2018-06-28T09:38:32.708Z,24.00
2018-06-28T09:41:01.080Z,24.40
2018-06-28T09:43:29.442Z,24.70
2018-06-28T09:45:58.029Z,24.80
2018-06-28T09:48:26.427Z,24.90
2018-06-28T09:50:55.404Z,24.60
2018-06-28T09:53:23.905Z,24.80
2018-06-28T09:55:52.350Z,24.90
2018-06-28T09:58:20.876Z,24.70
2018-06-28T10:00:49.236Z,24.80
2018-06-28T10:03:17.658Z,24.70
2018-06-28T10:05:46.028Z,24.90
2018-06-28T10:08:14.404Z,25.30
2018-06-28T10:10:42.772Z,25.40
2018-06-28T10:13:11.178Z,25.60
2018-06-28T10:15:39.848Z,25.50
2018-06-28T10:18:08.355Z,25.00
2018-06-28T10:20:36.768Z,24.90
2018-06-28T10:23:05.193Z,24.90
2018-06-28T10:28:01.661Z,24.50
2018-06-28T10:30:30.063Z,24.30
2018-06-28T10:32:58.529Z,24.70
2018-06-28T10:35:26.906Z,25.10
2018-06-28T10:37:56.089Z,24.90
2018-06-28T10:40:24.466Z,24.80
2018-06-28T10:42:52.832Z,25.10
2018-06-28T10:45:21.238Z,25.50
2018-06-28T10:47:49.669Z,25.30
2018-06-28T10:50:18.030Z,25.10
2018-06-28T10:52:46.399Z,25.10
2018-06-28T10:55:14.801Z,25.20
2018-06-28T10:57:43.195Z,25.60
2018-06-28T11:00:11.532Z,25.60
2018-06-28T11:02:41.013Z,25.80
2018-06-28T11:05:09.409Z,26.10
2018-06-28T11:07:38.839Z,25.90
2018-06-28T11:10:07.516Z,25.70
2018-06-28T11:12:35.925Z,25.50
2018-06-28T11:15:04.756Z,25.30
2018-06-28T11:17:33.113Z,25.70
2018-06-28T11:20:01.612Z,26.00
2018-06-28T11:22:30.033Z,26.10
2018-06-28T11:24:58.435Z,25.30
2018-06-28T11:27:26.879Z,25.20
2018-06-28T11:29:55.278Z,25.30
2018-06-28T11:32:23.667Z,25.60
2018-06-28T11:34:52.025Z,26.30
2018-06-28T11:37:20.472Z,26.40
2018-06-28T11:39:48.809Z,25.50
2018-06-28T11:42:17.193Z,25.30
2018-06-28T11:47:13.661Z,24.80
2018-06-28T11:49:42.213Z,25.30
2018-06-28T11:52:10.628Z,26.20
2018-06-28T11:54:39.028Z,25.80
2018-06-28T11:57:08.416Z,25.40
2018-06-28T11:59:36.831Z,25.10
2018-06-28T12:02:05.146Z,25.10
2018-06-28T12:04:33.532Z,24.70
2018-06-28T12:07:02.015Z,24.90
2018-06-28T12:09:30.462Z,25.50
2018-06-28T12:11:58.901Z,26.00
2018-06-28T12:14:27.352Z,26.70
2018-06-28T12:19:23.811Z,27.80
2018-06-28T12:21:52.217Z,27.30
2018-06-28T12:24:20.558Z,26.30
2018-06-28T12:26:48.940Z,25.90
2018-06-28T12:29:17.245Z,26.30
2018-06-28T12:31:45.608Z,26.50
2018-06-28T12:34:14.106Z,26.50
2018-06-28T12:36:43.347Z,25.90
2018-06-28T12:39:11.752Z,25.70
2018-06-28T12:41:40.160Z,26.30
2018-06-28T12:44:08.526Z,27.80
2018-06-28T12:47:48.464Z,28.50
2018-06-28T12:50:16.943Z,28.50
2018-06-28T12:52:47.600Z,26.50
2018-06-28T12:55:16.999Z,25.80
2018-06-28T12:57:45.721Z,26.70
2018-06-28T13:00:14.529Z,27.60
2018-06-28T13:02:43.220Z,27.80
2018-06-28T13:05:12.440Z,27.50
2018-06-28T13:07:40.872Z,27.30
2018-06-28T13:10:11.732Z,26.70
2018-06-28T13:12:40.393Z,25.90
2018-06-28T13:15:10.054Z,25.30
2018-06-28T13:20:08.377Z,24.70
2018-06-28T13:22:37.915Z,24.70
2018-06-28T13:25:07.247Z,25.40
2018-06-28T13:30:05.117Z,27.30
2018-06-28T13:32:34.513Z,27.80
2018-06-28T13:35:03.522Z,28.70
2018-06-28T13:37:31.958Z,28.30
2018-06-28T13:40:00.284Z,27.00
2018-06-28T13:42:28.679Z,26.00
2018-06-28T13:44:57.095Z,25.40
2018-06-28T13:47:25.583Z,25.60
2018-06-28T13:49:53.982Z,25.60
2018-06-28T13:52:22.388Z,25.70
2018-06-28T13:54:50.761Z,25.70
2018-06-28T13:57:19.067Z,26.30
2018-06-28T13:59:47.475Z,27.20
2018-06-28T14:02:15.816Z,28.00
2018-06-28T14:04:44.150Z,28.40
2018-06-28T14:07:12.516Z,28.70
2018-06-28T14:09:40.962Z,27.70
2018-06-28T14:12:09.343Z,27.60
2018-06-28T14:14:37.760Z,28.80
2018-06-28T14:17:06.154Z,29.30
2018-06-28T14:19:34.565Z,28.60
2018-06-28T14:22:03.061Z,27.20
2018-06-28T14:24:32.348Z,27.00
2018-06-28T14:27:02.934Z,27.90
2018-06-28T14:29:33.002Z,28.60
2018-06-28T14:32:01.469Z,28.80
2018-06-28T14:34:29.874Z,28.30
2018-06-28T14:36:58.257Z,28.10
2018-06-28T14:39:26.752Z,27.50
2018-06-28T14:41:55.234Z,26.60
2018-06-28T14:44:23.649Z,25.80
2018-06-28T14:46:52.074Z,25.10
2018-06-28T14:49:20.518Z,24.90
2018-06-28T14:51:48.921Z,24.80
2018-06-28T14:54:17.316Z,25.50
2018-06-28T14:56:45.910Z,27.70
2018-06-28T14:59:14.316Z,29.70
2018-06-28T15:01:42.737Z,30.30
2018-06-28T15:06:39.286Z,30.90
2018-06-28T15:09:08.987Z,30.20
2018-06-28T15:11:37.408Z,28.90
2018-06-28T15:14:06.117Z,28.70
2018-06-28T15:16:34.520Z,28.80
2018-06-28T15:19:02.894Z,29.60
2018-06-28T15:21:31.535Z,30.10
2018-06-28T15:24:00.178Z,30.00
2018-06-28T15:28:57.336Z,29.10
2018-06-28T15:31:26.873Z,28.70
2018-06-28T15:33:55.467Z,29.40
2018-06-28T15:36:23.876Z,29.80
2018-06-28T15:38:52.335Z,29.60
2018-06-28T15:41:21.092Z,29.40
2018-06-28T15:43:49.516Z,28.90
2018-06-28T15:46:17.933Z,28.90
2018-06-28T15:48:46.459Z,29.10
2018-06-28T15:51:14.851Z,30.10
2018-06-28T15:53:43.337Z,30.40
2018-06-28T15:56:11.748Z,30.00
2018-06-28T15:58:40.679Z,30.10
2018-06-28T16:01:09.043Z,30.00
2018-06-28T16:03:37.432Z,30.30
2018-06-28T16:06:06.875Z,29.50
2018-06-28T16:11:13.319Z,28.40
2018-06-28T16:13:41.841Z,28.90
2018-06-28T16:16:10.269Z,28.40
2018-06-28T16:21:07.414Z,28.80
2018-06-28T16:23:35.917Z,30.10
2018-06-28T16:26:04.286Z,30.30
2018-06-28T16:28:32.882Z,29.70
2018-06-28T16:31:01.407Z,27.90
2018-06-28T16:33:29.792Z,27.10
2018-06-28T16:35:58.232Z,26.10
2018-06-28T16:38:26.622Z,25.90
2018-06-28T16:40:55.065Z,26.90
2018-06-28T16:45:51.620Z,27.10
2018-06-28T16:48:20.004Z,26.50
2018-06-28T16:50:48.565Z,25.90
2018-06-28T16:53:16.965Z,25.30
2018-06-28T16:55:45.444Z,24.80
2018-06-28T16:58:13.872Z,24.60
2018-06-28T17:00:42.559Z,24.30
2018-06-28T17:03:13.928Z,24.30
2018-06-28T17:05:42.634Z,24.10
2018-06-28T17:08:11.802Z,24.00
2018-06-28T17:10:40.254Z,24.00
2018-06-28T17:13:09.364Z,23.90
2018-06-28T17:15:38.236Z,23.70
2018-06-28T17:18:06.673Z,23.70
2018-06-28T17:20:35.195Z,23.60
2018-06-28T17:23:03.664Z,23.60
2018-06-28T17:25:32.146Z,23.50
2018-06-28T17:28:00.606Z,23.60
2018-06-28T17:30:29.164Z,23.50
2018-06-28T17:32:57.631Z,23.50
2018-06-28T17:35:26.587Z,23.40
2018-06-28T17:37:55.022Z,23.40
2018-06-28T17:40:23.446Z,23.40
2018-06-28T17:42:51.883Z,23.40
2018-06-28T17:45:20.220Z,23.50
2018-06-28T17:47:49.193Z,23.50
2018-06-28T17:50:17.595Z,23.50
2018-06-28T17:52:45.933Z,23.50
2018-06-28T17:55:14.403Z,23.40
2018-06-28T18:00:11.745Z,23.20
2018-06-28T18:02:40.771Z,23.10
2018-06-28T18:05:09.276Z,23.10
2018-06-28T18:07:37.713Z,23.00
2018-06-28T18:10:06.237Z,23.00
2018-06-28T18:15:02.870Z,23.00
2018-06-28T18:17:31.264Z,22.90
2018-06-28T18:19:59.679Z,22.80
2018-06-28T18:22:28.069Z,22.80
2018-06-28T18:24:56.465Z,22.80
2018-06-28T18:27:25.011Z,22.70
2018-06-28T18:29:53.473Z,22.70
2018-06-28T18:32:21.882Z,22.70
2018-06-28T18:34:50.256Z,22.70
2018-06-28T18:37:18.639Z,22.70
2018-06-28T18:39:47.005Z,22.60
2018-06-28T18:42:15.354Z,22.70
2018-06-28T18:44:44.021Z,22.70
2018-06-28T18:47:12.455Z,22.80
2018-06-28T18:49:40.867Z,22.70
2018-06-28T18:52:09.282Z,22.60
2018-06-28T18:54:37.655Z,22.50
2018-06-28T18:57:06.042Z,22.50
2018-06-28T18:59:34.425Z,22.50
2018-06-28T19:02:02.951Z,22.50
2018-06-28T19:04:31.338Z,22.40
2018-06-28T19:06:59.686Z,22.30
2018-06-28T19:09:33.438Z,22.30
2018-06-28T19:12:01.908Z,22.30
2018-06-28T19:14:35.601Z,22.20
2018-06-28T19:17:04.021Z,22.20
2018-06-28T19:19:32.381Z,22.00
2018-06-28T19:22:06.198Z,22.00
2018-06-28T19:27:02.695Z,21.80
2018-06-28T19:29:36.331Z,21.70
2018-06-28T19:32:10.087Z,21.60
2018-06-28T19:34:38.520Z,21.50
2018-06-28T19:37:06.935Z,21.50
2018-06-28T19:39:41.050Z,21.30
2018-06-28T19:42:14.722Z,21.30
2018-06-28T19:47:11.257Z,21.20
2018-06-28T19:49:44.857Z,21.20
2018-06-28T19:52:18.561Z,21.20
2018-06-28T19:54:46.979Z,21.10
2018-06-28T19:57:15.536Z,21.10
2018-06-28T19:59:46.989Z,21.10
2018-06-28T20:02:21.582Z,21.20
2018-06-28T20:04:49.968Z,21.10
2018-06-28T20:07:18.362Z,21.10
2018-06-28T20:09:46.766Z,21.10
2018-06-28T20:12:20.545Z,21.10
2018-06-28T20:14:54.112Z,21.10
2018-06-28T20:17:27.819Z,21.00
2018-06-28T20:20:01.409Z,20.90
2018-06-28T20:22:29.821Z,20.90
2018-06-28T20:24:58.209Z,20.90
2018-06-28T20:27:31.873Z,20.80
2018-06-28T20:30:05.722Z,20.80
2018-06-28T20:32:39.558Z,20.90
2018-06-28T20:35:07.954Z,20.90
2018-06-28T20:37:36.411Z,20.90
2018-06-28T20:42:32.981Z,21.00
2018-06-28T20:45:01.523Z,21.10
2018-06-28T20:47:29.946Z,21.10
2018-06-28T20:49:58.372Z,21.10
2018-06-28T20:52:26.773Z,21.10
2018-06-28T20:54:55.197Z,21.10
2018-06-28T20:57:23.575Z,21.10
2018-06-28T20:59:51.957Z,21.20
2018-06-28T21:02:20.378Z,21.20
2018-06-28T21:04:48.805Z,21.00
2018-06-28T21:07:17.243Z,21.00
2018-06-28T21:09:45.614Z,20.80
2018-06-28T21:12:13.973Z,20.80
2018-06-28T21:14:42.369Z,20.60
2018-06-28T21:17:10.724Z,20.50
2018-06-28T21:19:39.104Z,20.50
2018-06-28T21:22:07.487Z,20.50
2018-06-28T21:24:35.911Z,20.50
2018-06-28T21:27:04.378Z,20.50
2018-06-28T21:29:32.729Z,20.50
2018-06-28T21:32:01.093Z,20.50
2018-06-28T21:34:29.722Z,20.50
2018-06-28T21:36:58.108Z,20.40
2018-06-28T21:39:26.470Z,20.40
2018-06-28T21:41:54.801Z,20.40
2018-06-28T21:44:23.132Z,20.40
2018-06-28T21:46:51.541Z,20.20
2018-06-28T21:49:19.892Z,20.20
2018-06-28T21:51:48.333Z,20.30
2018-06-28T21:54:16.757Z,20.30
2018-06-28T21:56:45.153Z,20.30
2018-06-28T21:59:13.487Z,20.40
2018-06-28T22:01:54.905Z,20.40
2018-06-28T22:04:23.300Z,20.40
2018-06-28T22:06:51.745Z,20.40
2018-06-28T22:09:20.550Z,20.40
2018-06-28T22:11:49.135Z,20.40
2018-06-28T22:14:17.993Z,20.40
2018-06-28T22:16:46.265Z,20.30
2018-06-28T22:19:14.651Z,20.30
2018-06-28T22:21:42.974Z,20.30
2018-06-28T22:24:11.295Z,20.30
2018-06-28T22:26:39.778Z,20.30
2018-06-28T22:29:08.161Z,20.30
2018-06-28T22:31:36.518Z,20.30
2018-06-28T22:34:04.910Z,20.30
2018-06-28T22:36:33.278Z,20.30
2018-06-28T22:39:01.753Z,20.30
2018-06-28T22:41:30.156Z,20.20
2018-06-28T22:43:58.516Z,20.30
2018-06-28T22:46:26.909Z,20.20
2018-06-28T22:48:55.272Z,20.20
2018-06-28T22:51:23.685Z,20.30
2018-06-28T22:53:52.010Z,20.30
2018-06-28T22:56:20.422Z,20.20
2018-06-28T22:58:48.802Z,20.20
2018-06-28T23:01:17.124Z,20.00
2018-06-28T23:03:45.501Z,20.20
2018-06-28T23:06:13.958Z,20.20
2018-06-28T23:08:42.360Z,20.10
2018-06-28T23:11:10.721Z,20.20
2018-06-28T23:13:39.101Z,20.10
2018-06-28T23:16:07.877Z,20.10
2018-06-28T23:18:36.276Z,20.20
2018-06-28T23:21:04.928Z,20.30
2018-06-28T23:23:33.320Z,20.20
2018-06-28T23:26:01.710Z,20.20
2018-06-28T23:28:30.161Z,20.20
2018-06-28T23:30:58.527Z,20.20
2018-06-28T23:33:26.864Z,20.20
2018-06-28T23:35:55.226Z,20.20
2018-06-28T23:38:23.625Z,20.10
2018-06-28T23:40:52.046Z,20.10
2018-06-28T23:43:20.352Z,20.00
2018-06-28T23:45:48.732Z,20.00
2018-06-28T23:48:17.116Z,20.00
2018-06-28T23:50:45.434Z,20.00
2018-06-28T23:53:13.804Z,20.00
2018-06-28T23:55:42.117Z,19.90
2018-06-28T23:58:10.461Z,20.00
